KBPI/BPI METAR and TAF weather

Enter ICAO airport designator
Station Type Date Time Source
KBPI METAR 2019/08/25 17:53 UTC NOAA

KBPI 251753Z AUTO 29014G24KT 10SM CLR 26/M03 A3014 RMK AO2 SLP099 T02611028 10267 20067 58006


Station Type Date Time Source
KBPI Decoded METAR 2019/08/25 17:53 UTC NOAA

Station name not available
Aug 25, 2019 - 01:53 PM EDT / 2019.08.25 1753 UTC
Wind: from the WNW (290 degrees) at 16 MPH (14 KT) gusting to 28 MPH (24 KT):0
Visibility: 10 mile(s):0
Sky conditions: clear
Temperature: 79.0 F (26.1 C)
Dew Point: 27.0 F (-2.8 C)
Relative Humidity: 14%
Pressure (altimeter): 30.14 in. Hg (1020 hPa)
Pressure tendency: 0.02 inches (0.6 hPa) lower than three hours ago
ob: KBPI 251753Z AUTO 29014G24KT 10SM CLR 26/M03 A3014 RMK AO2 SLP099 T02611028 10267 20067 58006
cycle: 18

Station Type Date Time Source
KBPI TAF 2019/08/25 18:28 UTC NOAA

TAF KBPI 251726Z 2518/2618 31022G32KT P6SM SKC
FM260200 33015KT P6SM SKC
FM260400 35010KT P6SM SKC
FM261100 VRB05KT P6SM SKC

Example: see airport list